createdAt,value
2018-09-10T00:00:10.021Z,12.00
2018-09-10T00:02:39.378Z,12.00
2018-09-10T00:05:08.154Z,12.10
2018-09-10T00:07:37.101Z,12.10
2018-09-10T00:10:06.175Z,12.00
2018-09-10T00:12:34.963Z,12.00
2018-09-10T00:15:03.911Z,12.00
2018-09-10T00:17:32.818Z,12.00
2018-09-10T00:20:02.137Z,11.90
2018-09-10T00:22:30.989Z,12.00
2018-09-10T00:24:59.792Z,11.90
2018-09-10T00:27:28.493Z,11.90
2018-09-10T00:29:57.297Z,11.80
2018-09-10T00:32:26.152Z,11.70
2018-09-10T00:34:54.874Z,11.70
2018-09-10T00:37:23.704Z,11.60
2018-09-10T00:39:53.109Z,11.60
2018-09-10T00:42:22.015Z,11.60
2018-09-10T00:44:50.993Z,11.50
2018-09-10T00:47:19.749Z,11.50
2018-09-10T00:49:48.755Z,11.50
2018-09-10T00:52:17.696Z,11.40
2018-09-10T00:54:46.977Z,11.40
2018-09-10T00:57:15.860Z,11.40
2018-09-10T00:59:44.653Z,11.30
2018-09-10T01:02:14.021Z,11.20
2018-09-10T01:04:42.874Z,11.30
2018-09-10T01:07:11.964Z,11.30
2018-09-10T01:09:40.733Z,11.20
2018-09-10T01:12:09.738Z,11.20
2018-09-10T01:14:38.698Z,11.30
2018-09-10T01:17:07.526Z,11.30
2018-09-10T01:19:36.480Z,11.40
2018-09-10T01:22:05.409Z,11.40
2018-09-10T01:24:35.088Z,11.40
2018-09-10T01:27:04.913Z,11.50
2018-09-10T01:29:33.987Z,11.40
2018-09-10T01:32:02.772Z,11.40
2018-09-10T01:34:36.932Z,11.40
2018-09-10T01:37:05.737Z,11.30
2018-09-10T01:39:34.500Z,11.20
2018-09-10T01:42:03.290Z,11.30
2018-09-10T01:44:32.275Z,11.20
2018-09-10T01:47:02.467Z,11.20
2018-09-10T01:49:31.582Z,11.20
2018-09-10T01:52:00.481Z,11.20
2018-09-10T01:54:29.228Z,11.20
2018-09-10T01:56:58.604Z,11.20
2018-09-10T01:59:27.629Z,11.20
2018-09-10T02:01:57.144Z,11.10
2018-09-10T02:04:26.818Z,11.10
2018-09-10T02:06:55.655Z,11.10
2018-09-10T02:09:24.540Z,11.10
2018-09-10T02:11:53.375Z,11.00
2018-09-10T02:14:22.264Z,10.90
2018-09-10T02:16:51.271Z,10.90
2018-09-10T02:19:20.081Z,10.90
2018-09-10T02:21:49.637Z,10.90
2018-09-10T02:24:19.333Z,10.90
2018-09-10T02:26:48.681Z,10.90
2018-09-10T02:29:39.976Z,10.90
2018-09-10T02:32:08.945Z,10.90
2018-09-10T02:34:38.488Z,10.90
2018-09-10T02:37:07.342Z,10.80
2018-09-10T02:39:36.909Z,10.80
2018-09-10T02:42:05.754Z,10.80
2018-09-10T02:44:34.630Z,10.70
2018-09-10T02:47:03.482Z,10.70
2018-09-10T02:49:32.245Z,10.70
2018-09-10T02:52:02.788Z,10.70
2018-09-10T02:54:31.634Z,10.70
2018-09-10T02:57:00.398Z,10.70
2018-09-10T02:59:29.508Z,10.60
2018-09-10T03:01:58.349Z,10.60
2018-09-10T03:04:27.284Z,10.50
2018-09-10T03:06:56.096Z,10.40
2018-09-10T03:09:24.938Z,10.30
2018-09-10T03:11:53.879Z,10.40
2018-09-10T03:14:22.753Z,10.30
2018-09-10T03:16:52.206Z,10.30
2018-09-10T03:19:21.071Z,10.20
2018-09-10T03:21:50.046Z,10.10
2018-09-10T03:24:19.032Z,10.00
2018-09-10T03:26:48.586Z,9.90
2018-09-10T03:29:18.121Z,9.80
2018-09-10T03:31:47.570Z,9.90
2018-09-10T03:34:16.697Z,9.90
2018-09-10T03:36:45.505Z,9.90
2018-09-10T03:39:14.328Z,10.00
2018-09-10T03:41:43.212Z,9.90
2018-09-10T03:44:12.154Z,9.90
2018-09-10T03:46:40.900Z,9.80
2018-09-10T03:49:10.442Z,9.80
2018-09-10T03:51:39.924Z,9.80
2018-09-10T03:54:08.672Z,9.70
2018-09-10T03:56:37.633Z,9.70
2018-09-10T03:59:06.625Z,9.70
2018-09-10T04:01:35.445Z,9.70
2018-09-10T04:04:04.336Z,9.70
2018-09-10T04:06:33.278Z,9.60
2018-09-10T04:09:02.042Z,9.60
2018-09-10T04:11:31.408Z,9.60
2018-09-10T04:14:00.962Z,9.60
2018-09-10T04:16:38.940Z,9.60
2018-09-10T04:19:07.802Z,9.60
2018-09-10T04:21:37.376Z,9.70
2018-09-10T04:24:06.636Z,9.70
2018-09-10T04:26:35.452Z,9.70
2018-09-10T04:29:04.312Z,9.70
2018-09-10T04:31:34.095Z,9.70
2018-09-10T04:34:03.100Z,9.70
2018-09-10T04:36:31.957Z,9.70
2018-09-10T04:39:01.262Z,9.60
2018-09-10T04:41:39.703Z,9.60
2018-09-10T04:44:09.187Z,9.50
2018-09-10T04:46:39.255Z,9.50
2018-09-10T04:49:09.307Z,9.40
2018-09-10T04:51:38.774Z,9.40
2018-09-10T04:54:07.635Z,9.50
2018-09-10T04:56:37.082Z,9.40
2018-09-10T04:59:06.564Z,9.40
2018-09-10T05:01:36.013Z,9.30
2018-09-10T05:04:04.785Z,9.30
2018-09-10T05:06:33.679Z,9.30
2018-09-10T05:09:02.612Z,9.40
2018-09-10T05:11:32.197Z,9.40
2018-09-10T05:14:00.934Z,9.50
2018-09-10T05:16:30.517Z,9.50
2018-09-10T05:18:59.857Z,9.50
2018-09-10T05:21:29.324Z,9.60
2018-09-10T05:23:58.925Z,9.60
2018-09-10T05:26:28.485Z,9.60
2018-09-10T05:28:57.949Z,9.70
2018-09-10T05:31:27.583Z,9.80
2018-09-10T05:33:56.764Z,9.80
2018-09-10T05:36:25.666Z,9.90
2018-09-10T05:38:54.552Z,9.90
2018-09-10T05:41:23.301Z,10.00
2018-09-10T05:43:52.312Z,10.10
2018-09-10T05:46:21.146Z,10.30
2018-09-10T05:48:50.453Z,10.40
2018-09-10T05:51:21.001Z,10.40
2018-09-10T05:53:49.826Z,10.50
2018-09-10T05:56:18.656Z,10.60
2018-09-10T05:58:47.625Z,10.60
2018-09-10T06:01:17.179Z,10.60
2018-09-10T06:03:45.857Z,10.60
2018-09-10T06:06:14.781Z,10.70
2018-09-10T06:08:43.690Z,10.80
2018-09-10T06:11:13.032Z,10.90
2018-09-10T06:13:41.937Z,11.00
2018-09-10T06:16:11.243Z,11.20
2018-09-10T06:18:40.105Z,11.40
2018-09-10T06:21:09.165Z,11.50
2018-09-10T06:23:38.133Z,11.70
2018-09-10T06:26:07.701Z,11.80
2018-09-10T06:28:38.082Z,11.90
2018-09-10T06:31:07.800Z,12.00
2018-09-10T06:33:36.960Z,12.10
2018-09-10T06:36:06.039Z,12.20
2018-09-10T06:38:35.480Z,12.30
2018-09-10T06:41:05.059Z,12.40
2018-09-10T06:43:34.285Z,12.50
2018-09-10T06:46:03.804Z,12.60
2018-09-10T06:48:35.963Z,12.70
2018-09-10T06:51:06.784Z,12.90
2018-09-10T06:53:36.627Z,13.10
2018-09-10T06:56:06.145Z,13.30
2018-09-10T06:58:35.908Z,13.40
2018-09-10T07:01:05.375Z,13.80
2018-09-10T07:03:34.794Z,14.00
2018-09-10T07:06:03.669Z,14.00
2018-09-10T07:08:35.864Z,13.90
2018-09-10T07:11:04.748Z,14.00
2018-09-10T07:13:34.233Z,14.20
2018-09-10T07:16:02.956Z,14.30
2018-09-10T07:18:31.779Z,14.20
2018-09-10T07:21:01.907Z,14.40
2018-09-10T07:23:31.345Z,14.50
2018-09-10T07:26:00.632Z,14.80
2018-09-10T07:28:29.435Z,15.50
2018-09-10T07:30:58.865Z,16.50
2018-09-10T07:33:28.026Z,16.70
2018-09-10T07:35:56.956Z,16.50
2018-09-10T07:38:26.352Z,16.30
2018-09-10T07:40:55.284Z,16.30
2018-09-10T07:43:25.016Z,16.40
2018-09-10T07:45:53.837Z,16.80
2018-09-10T07:48:22.794Z,17.40
2018-09-10T07:50:52.371Z,17.60
2018-09-10T07:53:21.674Z,18.30
2018-09-10T07:55:50.498Z,19.00
2018-09-10T07:58:19.849Z,19.70
2018-09-10T08:00:48.775Z,22.20
2018-09-10T08:03:18.041Z,25.30
2018-09-10T08:05:46.889Z,27.40
2018-09-10T08:08:16.405Z,28.70
2018-09-10T08:10:45.820Z,29.90
2018-09-10T08:13:15.249Z,31.80
2018-09-10T08:15:44.061Z,33.10
2018-09-10T08:18:13.521Z,31.80
2018-09-10T08:20:43.109Z,31.50
2018-09-10T08:23:12.705Z,32.30
2018-09-10T08:25:42.120Z,33.10
2018-09-10T08:28:10.949Z,33.80
2018-09-10T08:30:39.652Z,34.30
2018-09-10T08:33:08.508Z,33.70
2018-09-10T08:35:37.376Z,34.40
2018-09-10T08:38:06.923Z,34.60
2018-09-10T08:40:35.669Z,34.20
2018-09-10T08:43:05.608Z,35.70
2018-09-10T08:45:34.498Z,37.10
2018-09-10T08:48:03.255Z,38.10
2018-09-10T08:50:32.392Z,38.80
2018-09-10T08:53:01.288Z,38.50
2018-09-10T08:55:30.125Z,38.90
2018-09-10T08:57:58.698Z,39.30
2018-09-10T09:00:27.934Z,39.70
2018-09-10T09:02:57.408Z,39.60
2018-09-10T09:05:26.228Z,39.40
2018-09-10T09:07:55.694Z,37.90
2018-09-10T09:10:25.160Z,37.00
2018-09-10T09:12:54.385Z,36.30
2018-09-10T09:15:23.233Z,35.60
2018-09-10T09:17:52.073Z,35.40
2018-09-10T09:20:21.320Z,35.80
2018-09-10T09:22:50.844Z,35.20
2018-09-10T09:25:20.503Z,34.70
2018-09-10T09:27:49.898Z,35.60
2018-09-10T09:30:19.482Z,36.10
2018-09-10T09:32:48.104Z,36.30
2018-09-10T09:35:16.938Z,36.70
2018-09-10T09:37:50.834Z,37.20
2018-09-10T09:40:24.739Z,37.40
2018-09-10T09:42:58.961Z,36.60
2018-09-10T09:45:33.516Z,37.00
2018-09-10T09:48:02.993Z,38.20
2018-09-10T09:50:32.788Z,39.20
2018-09-10T09:53:02.017Z,39.70
2018-09-10T09:55:31.576Z,40.00
2018-09-10T09:58:00.350Z,39.30
2018-09-10T10:00:34.446Z,38.60
2018-09-10T10:03:09.267Z,38.50
2018-09-10T10:05:38.542Z,38.60
2018-09-10T10:08:08.016Z,36.80
2018-09-10T10:10:36.820Z,36.70
2018-09-10T10:13:06.110Z,36.70
2018-09-10T10:15:35.374Z,36.60
2018-09-10T10:18:04.591Z,37.30
2018-09-10T10:20:33.746Z,36.50
2018-09-10T10:23:02.702Z,35.60
2018-09-10T10:25:31.657Z,35.50
2018-09-10T10:28:00.541Z,34.90
2018-09-10T10:30:29.387Z,34.90
2018-09-10T10:32:58.259Z,34.20
2018-09-10T10:35:27.139Z,33.90
2018-09-10T10:37:55.898Z,33.20
2018-09-10T10:40:25.471Z,32.30
2018-09-10T10:42:54.409Z,32.40
2018-09-10T10:45:23.356Z,32.90
2018-09-10T10:47:52.858Z,33.70
2018-09-10T10:50:21.576Z,33.90
2018-09-10T10:52:51.159Z,33.80
2018-09-10T10:55:20.611Z,34.00
2018-09-10T10:57:49.493Z,33.20
2018-09-10T11:00:18.409Z,33.90
2018-09-10T11:02:47.172Z,35.30
2018-09-10T11:05:16.505Z,36.40
2018-09-10T11:07:45.486Z,37.20
2018-09-10T11:10:15.053Z,37.60
2018-09-10T11:12:44.502Z,36.40
2018-09-10T11:15:13.192Z,34.80
2018-09-10T11:17:42.676Z,35.40
2018-09-10T11:20:11.380Z,35.60
2018-09-10T11:22:40.332Z,36.30
2018-09-10T11:25:09.265Z,36.60
2018-09-10T11:27:38.794Z,35.80
2018-09-10T11:30:08.352Z,36.60
2018-09-10T11:32:37.929Z,36.20
2018-09-10T11:35:07.530Z,35.80
2018-09-10T11:37:37.013Z,34.80
2018-09-10T11:40:05.748Z,35.40
2018-09-10T11:42:35.259Z,36.30
2018-09-10T11:45:03.966Z,36.30
2018-09-10T11:47:33.687Z,37.10
2018-09-10T11:50:02.390Z,36.20
2018-09-10T11:52:31.262Z,36.70
2018-09-10T11:55:00.585Z,37.20
2018-09-10T11:57:29.553Z,36.30
2018-09-10T11:59:59.380Z,36.30
2018-09-10T12:02:28.816Z,37.50
2018-09-10T12:04:58.027Z,38.10
2018-09-10T12:07:27.779Z,37.50
2018-09-10T12:09:57.147Z,36.90
2018-09-10T12:12:26.119Z,36.30
2018-09-10T12:14:55.009Z,36.00
2018-09-10T12:17:23.779Z,36.00
2018-09-10T12:19:53.180Z,36.30
2018-09-10T12:22:22.008Z,36.70
2018-09-10T12:24:50.896Z,35.10
2018-09-10T12:27:19.724Z,34.30
2018-09-10T12:29:48.639Z,33.70
2018-09-10T12:32:17.519Z,33.60
2018-09-10T12:34:46.710Z,35.00
2018-09-10T12:37:15.365Z,35.40
2018-09-10T12:39:44.146Z,36.10
2018-09-10T12:42:12.856Z,36.50
2018-09-10T12:44:41.538Z,35.90
2018-09-10T12:47:10.209Z,35.30
2018-09-10T12:49:39.206Z,34.90
2018-09-10T12:52:09.563Z,34.60
2018-09-10T12:54:38.308Z,34.70
2018-09-10T12:57:08.213Z,34.60
2018-09-10T12:59:37.241Z,34.30
2018-09-10T13:02:05.952Z,34.00
2018-09-10T13:04:35.045Z,33.40
2018-09-10T13:07:04.002Z,33.50
2018-09-10T13:09:33.222Z,33.10
2018-09-10T13:12:02.085Z,33.80
2018-09-10T13:14:30.760Z,34.40
2018-09-10T13:16:59.579Z,34.10
2018-09-10T13:19:28.505Z,34.80
2018-09-10T13:21:57.337Z,34.40
2018-09-10T13:24:26.160Z,34.30
2018-09-10T13:26:55.354Z,33.10
2018-09-10T13:29:24.080Z,32.40
2018-09-10T13:31:53.785Z,31.80
2018-09-10T13:34:23.220Z,31.80
2018-09-10T13:36:52.529Z,31.70
2018-09-10T13:39:21.290Z,32.60
2018-09-10T13:41:50.711Z,33.10
2018-09-10T13:44:19.469Z,33.50
2018-09-10T13:46:48.246Z,32.90
2018-09-10T13:49:17.471Z,32.90
2018-09-10T13:51:46.175Z,33.50
2018-09-10T13:54:15.727Z,33.10
2018-09-10T13:56:44.944Z,32.80
2018-09-10T14:05:09.577Z,32.80
2018-09-10T14:07:38.628Z,32.30
2018-09-10T14:10:07.505Z,32.00
2018-09-10T14:12:36.259Z,31.20
2018-09-10T14:15:05.988Z,30.70
2018-09-10T14:17:35.291Z,30.30
2018-09-10T14:20:04.843Z,30.30
2018-09-10T14:22:34.183Z,30.70
2018-09-10T14:25:03.024Z,30.90
2018-09-10T14:27:31.865Z,30.70
2018-09-10T14:30:01.194Z,30.80
2018-09-10T14:32:30.654Z,31.00
2018-09-10T14:34:59.456Z,31.20
2018-09-10T14:37:31.581Z,31.40
2018-09-10T14:40:00.885Z,31.30
2018-09-10T14:42:29.729Z,31.30
2018-09-10T14:44:58.571Z,30.50
2018-09-10T14:47:27.324Z,30.00
2018-09-10T14:49:56.136Z,29.90
2018-09-10T14:52:24.980Z,30.10
2018-09-10T14:54:53.714Z,29.90
2018-09-10T14:57:23.769Z,29.30
2018-09-10T14:59:52.658Z,29.30
2018-09-10T15:02:21.381Z,29.30
2018-09-10T15:04:50.921Z,29.30
2018-09-10T15:07:24.308Z,29.40
2018-09-10T15:09:53.485Z,29.00
2018-09-10T15:12:22.409Z,28.70
2018-09-10T15:14:51.976Z,28.60
2018-09-10T15:17:21.436Z,28.80
2018-09-10T15:19:51.318Z,28.70
2018-09-10T15:22:20.490Z,29.00
2018-09-10T15:24:49.227Z,28.80
2018-09-10T15:27:18.688Z,28.80
2018-09-10T15:29:48.470Z,29.00
2018-09-10T15:32:17.308Z,28.90
2018-09-10T15:34:46.152Z,29.30
2018-09-10T15:37:14.983Z,29.20
2018-09-10T15:39:43.805Z,29.10
2018-09-10T15:42:12.581Z,29.20
2018-09-10T15:44:41.567Z,29.40
2018-09-10T15:47:10.908Z,29.70
2018-09-10T15:49:39.690Z,29.80
2018-09-10T15:52:08.723Z,29.90
2018-09-10T15:54:37.745Z,29.60
2018-09-10T15:57:07.328Z,29.40
2018-09-10T15:59:36.942Z,29.00
2018-09-10T16:02:06.560Z,28.90
2018-09-10T16:04:35.571Z,28.70
2018-09-10T16:07:05.594Z,28.70
2018-09-10T16:09:34.585Z,28.70
2018-09-10T16:12:03.503Z,28.20
2018-09-10T16:14:33.012Z,28.20
2018-09-10T16:17:01.780Z,28.10
2018-09-10T16:19:31.304Z,27.90
2018-09-10T16:22:00.181Z,27.70
2018-09-10T16:24:29.281Z,27.60
2018-09-10T16:26:58.839Z,27.60
2018-09-10T16:29:28.126Z,27.30
2018-09-10T16:31:57.037Z,27.20
2018-09-10T16:34:25.938Z,26.80
2018-09-10T16:36:54.697Z,26.70
2018-09-10T16:39:23.686Z,26.50
2018-09-10T16:41:53.176Z,26.30
2018-09-10T16:44:23.384Z,26.00
2018-09-10T16:46:52.353Z,25.90
2018-09-10T16:52:39.287Z,26.00
2018-09-10T16:55:08.290Z,26.00
2018-09-10T16:57:42.954Z,25.80
2018-09-10T17:00:13.490Z,25.50
2018-09-10T17:02:42.415Z,25.10
2018-09-10T17:05:12.227Z,24.80
2018-09-10T17:07:41.138Z,24.40
2018-09-10T17:10:10.033Z,24.20
2018-09-10T17:12:39.545Z,23.80
2018-09-10T17:15:09.179Z,23.50
2018-09-10T17:17:37.971Z,23.10
2018-09-10T17:20:07.095Z,22.80
2018-09-10T17:22:36.875Z,22.50
2018-09-10T17:25:05.896Z,22.20
2018-09-10T17:27:34.765Z,22.00
2018-09-10T17:30:04.022Z,21.70
2018-09-10T17:32:32.867Z,21.60
2018-09-10T17:35:02.792Z,21.40
2018-09-10T17:37:31.656Z,21.20
2018-09-10T17:40:00.566Z,20.90
2018-09-10T17:42:29.587Z,20.70
2018-09-10T17:44:58.727Z,20.60
2018-09-10T17:47:32.111Z,20.50
2018-09-10T17:50:01.942Z,20.40
2018-09-10T17:52:31.094Z,20.20
2018-09-10T17:54:59.909Z,20.10
2018-09-10T17:57:28.969Z,19.90
2018-09-10T17:59:57.899Z,19.80
2018-09-10T18:02:27.392Z,19.60
2018-09-10T18:04:56.937Z,19.50
2018-09-10T18:07:26.854Z,19.40
2018-09-10T18:09:56.909Z,19.30
2018-09-10T18:12:25.834Z,19.20
2018-09-10T18:14:55.414Z,19.10
2018-09-10T18:17:24.459Z,19.10
2018-09-10T18:19:54.053Z,19.00
2018-09-10T18:22:26.919Z,18.90
2018-09-10T18:24:55.864Z,18.90
2018-09-10T18:27:24.910Z,18.90
2018-09-10T18:29:54.007Z,18.90
2018-09-10T18:32:23.029Z,18.80
2018-09-10T18:34:51.963Z,18.80
2018-09-10T18:37:20.877Z,18.80
2018-09-10T18:39:50.556Z,18.80
2018-09-10T18:42:26.549Z,18.80
2018-09-10T18:44:55.452Z,18.90
2018-09-10T18:47:24.928Z,18.90
2018-09-10T18:49:54.536Z,18.80
2018-09-10T18:52:23.998Z,18.90
2018-09-10T18:54:54.981Z,18.90
2018-09-10T18:57:24.512Z,19.00
2018-09-10T18:59:54.061Z,19.10
2018-09-10T19:02:23.079Z,19.20
2018-09-10T19:04:53.167Z,19.30
2018-09-10T19:07:22.881Z,19.60
2018-09-10T19:09:52.146Z,19.70
2018-09-10T19:12:22.002Z,19.90
2018-09-10T19:14:51.088Z,19.90
2018-09-10T19:17:19.994Z,20.00
2018-09-10T19:19:49.391Z,19.90
2018-09-10T19:22:18.228Z,19.80
2018-09-10T19:24:47.120Z,19.60
2018-09-10T19:27:15.987Z,19.50
2018-09-10T19:29:45.542Z,19.40
2018-09-10T19:32:15.353Z,19.20
2018-09-10T19:34:44.341Z,19.10
2018-09-10T19:37:13.928Z,19.10
2018-09-10T19:39:43.610Z,19.20
2018-09-10T19:42:12.477Z,19.30
2018-09-10T19:44:41.821Z,19.60
2018-09-10T19:47:10.613Z,19.70
2018-09-10T19:49:40.046Z,19.80
2018-09-10T19:52:09.791Z,19.70
2018-09-10T19:54:38.725Z,19.60
2018-09-10T19:57:08.537Z,19.30
2018-09-10T19:59:37.424Z,19.00
2018-09-10T20:02:06.335Z,18.70
2018-09-10T20:04:35.108Z,18.50
2018-09-10T20:07:04.060Z,18.30
2018-09-10T20:09:33.008Z,18.20
2018-09-10T20:12:01.759Z,18.00
2018-09-10T20:14:31.291Z,17.90
2018-09-10T20:17:00.706Z,17.90
2018-09-10T20:19:29.558Z,17.70
2018-09-10T20:21:58.763Z,17.60
2018-09-10T20:24:27.687Z,17.60
2018-09-10T20:26:57.567Z,17.50
2018-09-10T20:29:26.434Z,17.40
2018-09-10T20:31:55.366Z,17.40
2018-09-10T20:34:24.220Z,17.20
2018-09-10T20:36:53.509Z,17.10
2018-09-10T20:39:22.396Z,17.10
2018-09-10T20:41:51.403Z,17.00
2018-09-10T20:44:20.087Z,17.00
2018-09-10T20:46:49.790Z,16.90
2018-09-10T20:49:19.261Z,16.80
2018-09-10T20:51:48.090Z,16.70
2018-09-10T20:54:17.036Z,16.60
2018-09-10T20:56:45.963Z,16.60
2018-09-10T20:59:15.368Z,16.40
2018-09-10T21:01:44.146Z,16.30
2018-09-10T21:04:13.965Z,16.30
2018-09-10T21:06:43.027Z,16.20
2018-09-10T21:09:12.684Z,16.20
2018-09-10T21:11:42.192Z,16.10
2018-09-10T21:14:11.061Z,16.10
2018-09-10T21:16:39.962Z,15.90
2018-09-10T21:19:08.993Z,15.90
2018-09-10T21:21:38.288Z,15.80
2018-09-10T21:24:07.188Z,15.70
2018-09-10T21:26:36.648Z,15.70
2018-09-10T21:29:05.446Z,15.70
2018-09-10T21:31:35.633Z,15.70
2018-09-10T21:34:05.156Z,15.80
2018-09-10T21:36:34.728Z,15.80
2018-09-10T21:39:04.287Z,15.80
2018-09-10T21:41:33.213Z,15.90
2018-09-10T21:44:02.710Z,16.10
2018-09-10T21:46:31.584Z,16.20
2018-09-10T21:49:00.500Z,16.20
2018-09-10T21:51:29.360Z,16.30
2018-09-10T21:53:58.365Z,16.30
2018-09-10T21:56:27.271Z,16.30
2018-09-10T21:58:57.154Z,16.40
2018-09-10T22:01:26.082Z,16.40
2018-09-10T22:03:55.470Z,16.40
2018-09-10T22:06:24.382Z,16.40
2018-09-10T22:08:53.146Z,16.50
2018-09-10T22:11:22.023Z,16.60
2018-09-10T22:13:51.377Z,16.70
2018-09-10T22:16:20.213Z,16.80
2018-09-10T22:18:49.009Z,16.80
2018-09-10T22:21:17.760Z,16.90
2018-09-10T22:23:47.328Z,17.10
2018-09-10T22:26:17.872Z,17.20
2018-09-10T22:28:46.629Z,17.20
2018-09-10T22:31:15.944Z,17.20
2018-09-10T22:33:44.825Z,17.30
2018-09-10T22:36:13.716Z,17.50
2018-09-10T22:38:42.597Z,17.70
2018-09-10T22:41:11.508Z,17.70
2018-09-10T22:43:40.958Z,17.70
2018-09-10T22:46:10.268Z,17.70
2018-09-10T22:48:39.973Z,17.60
2018-09-10T22:51:08.985Z,17.70
2018-09-10T22:53:37.901Z,17.70
2018-09-10T22:56:07.429Z,17.70
2018-09-10T22:58:36.967Z,17.60
2018-09-10T23:01:06.536Z,17.60
2018-09-10T23:03:35.459Z,17.50
2018-09-10T23:06:04.276Z,17.50
2018-09-10T23:08:33.238Z,17.60
2018-09-10T23:11:01.970Z,17.80
2018-09-10T23:13:32.348Z,17.90
2018-09-10T23:16:01.809Z,18.10
2018-09-10T23:18:30.543Z,18.20
2018-09-10T23:20:59.417Z,18.00
2018-09-10T23:23:28.408Z,17.80
2018-09-10T23:25:57.218Z,17.80
2018-09-10T23:28:26.072Z,17.70
2018-09-10T23:30:54.788Z,17.60
2018-09-10T23:33:24.250Z,17.40
2018-09-10T23:35:53.154Z,17.10
2018-09-10T23:38:22.542Z,16.70
2018-09-10T23:40:51.314Z,16.40
2018-09-10T23:43:20.433Z,16.10
2018-09-10T23:45:49.343Z,15.90
2018-09-10T23:48:18.099Z,15.60
2018-09-10T23:50:47.306Z,15.50
2018-09-10T23:53:16.192Z,15.30
2018-09-10T23:55:44.944Z,15.20
2018-09-10T23:58:13.918Z,15.10
